sensor_id;sensor_type;location;lat;lon;timestamp;temperature;humidity
21559;DHT22;10940;48.890;8.240;2024-03-23T00:53:08;12.40;99.90
21559;DHT22;10940;48.890;8.240;2024-03-23T00:55:34;12.30;99.90
21559;DHT22;10940;48.890;8.240;2024-03-23T00:57:59;12.30;99.90
21559;DHT22;10940;48.890;8.240;2024-03-23T01:00:25;12.30;99.90
21559;DHT22;10940;48.890;8.240;2024-03-23T01:02:50;12.20;99.90
21559;DHT22;10940;48.890;8.240;2024-03-23T01:05:16;12.30;99.90
21559;DHT22;10940;48.890;8.240;2024-03-23T01:07:42;12.30;99.90
21559;DHT22;10940;48.890;8.240;2024-03-23T01:10:09;12.40;99.90
21559;DHT22;10940;48.890;8.240;2024-03-23T01:12:34;12.40;99.90
21559;DHT22;10940;48.890;8.240;2024-03-23T01:15:00;12.40;99.90
21559;DHT22;10940;48.890;8.240;2024-03-23T01:17:26;12.50;99.90
21559;DHT22;10940;48.890;8.240;2024-03-23T01:19:51;12.60;99.90
21559;DHT22;10940;48.890;8.240;2024-03-23T01:22:17;12.70;99.90
21559;DHT22;10940;48.890;8.240;2024-03-23T01:24:43;12.80;99.90
21559;DHT22;10940;48.890;8.240;2024-03-23T01:27:09;13.00;99.90
21559;DHT22;10940;48.890;8.240;2024-03-23T01:29:34;13.00;99.90
21559;DHT22;10940;48.890;8.240;2024-03-23T01:32:00;13.10;99.90
21559;DHT22;10940;48.890;8.240;2024-03-23T01:34:25;13.20;99.90
21559;DHT22;10940;48.890;8.240;2024-03-23T01:36:52;13.30;99.90
21559;DHT22;10940;48.890;8.240;2024-03-23T01:39:17;13.30;99.90
21559;DHT22;10940;48.890;8.240;2024-03-23T01:41:43;13.30;99.90
21559;DHT22;10940;48.890;8.240;2024-03-23T01:44:09;13.40;99.90
21559;DHT22;10940;48.890;8.240;2024-03-23T01:46:36;13.40;99.90
21559;DHT22;10940;48.890;8.240;2024-03-23T01:49:02;13.40;99.90
21559;DHT22;10940;48.890;8.240;2024-03-23T01:51:29;13.40;99.90
21559;DHT22;10940;48.890;8.240;2024-03-23T01:53:56;13.40;99.90
21559;DHT22;10940;48.890;8.240;2024-03-23T01:56:22;13.50;99.90
21559;DHT22;10940;48.890;8.240;2024-03-23T01:58:47;13.40;99.90
21559;DHT22;10940;48.890;8.240;2024-03-23T02:01:13;13.40;99.90
21559;DHT22;10940;48.890;8.240;2024-03-23T02:03:39;13.40;99.90
21559;DHT22;10940;48.890;8.240;2024-03-23T02:06:05;13.30;99.90
21559;DHT22;10940;48.890;8.240;2024-03-23T02:08:32;13.30;99.90
21559;DHT22;10940;48.890;8.240;2024-03-23T02:10:58;13.30;99.90
21559;DHT22;10940;48.890;8.240;2024-03-23T02:13:24;13.30;99.90
21559;DHT22;10940;48.890;8.240;2024-03-23T02:15:50;13.30;99.90
21559;DHT22;10940;48.890;8.240;2024-03-23T02:18:15;13.30;99.90
21559;DHT22;10940;48.890;8.240;2024-03-23T02:20:41;13.30;99.90
21559;DHT22;10940;48.890;8.240;2024-03-23T02:23:13;13.30;99.90
21559;DHT22;10940;48.890;8.240;2024-03-23T02:25:39;13.30;99.90
21559;DHT22;10940;48.890;8.240;2024-03-23T02:28:05;13.20;99.90
21559;DHT22;10940;48.890;8.240;2024-03-23T02:30:30;13.20;99.90
21559;DHT22;10940;48.890;8.240;2024-03-23T02:32:56;13.20;99.90
21559;DHT22;10940;48.890;8.240;2024-03-23T02:35:21;13.20;99.90
21559;DHT22;10940;48.890;8.240;2024-03-23T02:37:47;13.10;99.90
21559;DHT22;10940;48.890;8.240;2024-03-23T02:40:16;13.20;99.90
21559;DHT22;10940;48.890;8.240;2024-03-23T02:42:42;13.20;99.90
21559;DHT22;10940;48.890;8.240;2024-03-23T02:45:08;13.10;99.90
21559;DHT22;10940;48.890;8.240;2024-03-23T02:47:34;13.10;99.90
21559;DHT22;10940;48.890;8.240;2024-03-23T02:50:00;13.20;99.90
21559;DHT22;10940;48.890;8.240;2024-03-23T02:52:25;13.20;99.90
21559;DHT22;10940;48.890;8.240;2024-03-23T02:54:51;13.20;99.90
21559;DHT22;10940;48.890;8.240;2024-03-23T02:57:17;13.10;99.90
21559;DHT22;10940;48.890;8.240;2024-03-23T02:59:42;13.10;99.90
21559;DHT22;10940;48.890;8.240;2024-03-23T03:02:08;13.10;99.90
21559;DHT22;10940;48.890;8.240;2024-03-23T03:04:34;13.10;99.90
21559;DHT22;10940;48.890;8.240;2024-03-23T03:07:00;13.00;99.90
21559;DHT22;10940;48.890;8.240;2024-03-23T03:09:26;12.90;99.90
21559;DHT22;10940;48.890;8.240;2024-03-23T03:11:52;12.80;99.90
21559;DHT22;10940;48.890;8.240;2024-03-23T03:14:17;12.80;99.90
21559;DHT22;10940;48.890;8.240;2024-03-23T03:16:43;12.70;99.90
21559;DHT22;10940;48.890;8.240;2024-03-23T03:19:08;12.80;99.90
21559;DHT22;10940;48.890;8.240;2024-03-23T03:21:36;12.80;99.90
21559;DHT22;10940;48.890;8.240;2024-03-23T03:24:02;12.80;99.90
21559;DHT22;10940;48.890;8.240;2024-03-23T03:26:28;12.70;99.90
21559;DHT22;10940;48.890;8.240;2024-03-23T03:28:53;12.80;99.90
21559;DHT22;10940;48.890;8.240;2024-03-23T03:31:19;12.90;99.90
21559;DHT22;10940;48.890;8.240;2024-03-23T03:33:44;13.00;99.90
21559;DHT22;10940;48.890;8.240;2024-03-23T03:36:10;13.00;99.90
21559;DHT22;10940;48.890;8.240;2024-03-23T03:38:36;13.10;99.90
21559;DHT22;10940;48.890;8.240;2024-03-23T03:41:02;13.10;99.90
21559;DHT22;10940;48.890;8.240;2024-03-23T03:43:28;13.20;99.90
21559;DHT22;10940;48.890;8.240;2024-03-23T03:45:54;13.20;99.90
21559;DHT22;10940;48.890;8.240;2024-03-23T03:48:20;13.30;99.90
21559;DHT22;10940;48.890;8.240;2024-03-23T03:50:46;13.30;99.90
21559;DHT22;10940;48.890;8.240;2024-03-23T03:53:11;13.20;99.90
21559;DHT22;10940;48.890;8.240;2024-03-23T03:55:37;13.10;99.90
21559;DHT22;10940;48.890;8.240;2024-03-23T03:58:02;13.10;99.90
21559;DHT22;10940;48.890;8.240;2024-03-23T04:00:28;13.10;99.90
21559;DHT22;10940;48.890;8.240;2024-03-23T04:02:53;13.10;99.90
21559;DHT22;10940;48.890;8.240;2024-03-23T04:05:19;13.00;99.90
21559;DHT22;10940;48.890;8.240;2024-03-23T04:07:45;13.00;99.90
21559;DHT22;10940;48.890;8.240;2024-03-23T04:10:11;12.90;99.90
21559;DHT22;10940;48.890;8.240;2024-03-23T04:12:37;12.90;99.90
21559;DHT22;10940;48.890;8.240;2024-03-23T04:15:03;12.90;99.90
21559;DHT22;10940;48.890;8.240;2024-03-23T04:17:30;12.80;99.90
21559;DHT22;10940;48.890;8.240;2024-03-23T04:19:58;12.80;99.90
21559;DHT22;10940;48.890;8.240;2024-03-23T04:22:24;12.70;99.90
21559;DHT22;10940;48.890;8.240;2024-03-23T04:24:56;12.70;99.90
21559;DHT22;10940;48.890;8.240;2024-03-23T04:27:25;12.60;99.90
21559;DHT22;10940;48.890;8.240;2024-03-23T04:29:51;12.60;99.90
21559;DHT22;10940;48.890;8.240;2024-03-23T04:32:17;12.60;99.90
21559;DHT22;10940;48.890;8.240;2024-03-23T04:34:43;12.40;99.90
21559;DHT22;10940;48.890;8.240;2024-03-23T04:37:09;12.40;99.90
21559;DHT22;10940;48.890;8.240;2024-03-23T04:39:36;12.40;99.90
21559;DHT22;10940;48.890;8.240;2024-03-23T04:42:02;12.20;99.90
21559;DHT22;10940;48.890;8.240;2024-03-23T04:44:28;12.20;99.90
21559;DHT22;10940;48.890;8.240;2024-03-23T04:46:54;12.20;99.90
21559;DHT22;10940;48.890;8.240;2024-03-23T04:49:19;12.10;99.90
21559;DHT22;10940;48.890;8.240;2024-03-23T04:51:45;12.10;99.90
21559;DHT22;10940;48.890;8.240;2024-03-23T04:54:15;12.10;99.90
21559;DHT22;10940;48.890;8.240;2024-03-23T04:56:40;12.00;99.90
21559;DHT22;10940;48.890;8.240;2024-03-23T04:59:06;11.90;99.90
21559;DHT22;10940;48.890;8.240;2024-03-23T05:01:32;11.80;99.90
21559;DHT22;10940;48.890;8.240;2024-03-23T05:03:58;11.80;99.90
21559;DHT22;10940;48.890;8.240;2024-03-23T05:06:24;11.70;99.90
21559;DHT22;10940;48.890;8.240;2024-03-23T05:08:50;11.70;99.90
21559;DHT22;10940;48.890;8.240;2024-03-23T05:11:16;11.60;99.90
21559;DHT22;10940;48.890;8.240;2024-03-23T05:13:42;11.60;99.90
21559;DHT22;10940;48.890;8.240;2024-03-23T05:16:07;11.60;99.90
21559;DHT22;10940;48.890;8.240;2024-03-23T05:18:34;11.50;99.90
21559;DHT22;10940;48.890;8.240;2024-03-23T05:21:00;11.40;99.90
21559;DHT22;10940;48.890;8.240;2024-03-23T05:23:30;11.40;99.90
21559;DHT22;10940;48.890;8.240;2024-03-23T05:25:58;11.30;99.90
21559;DHT22;10940;48.890;8.240;2024-03-23T05:28:23;11.20;99.90
21559;DHT22;10940;48.890;8.240;2024-03-23T05:30:55;11.10;99.90
21559;DHT22;10940;48.890;8.240;2024-03-23T05:33:22;11.00;99.90
21559;DHT22;10940;48.890;8.240;2024-03-23T05:35:56;10.90;99.90
21559;DHT22;10940;48.890;8.240;2024-03-23T05:38:22;10.90;99.90
21559;DHT22;10940;48.890;8.240;2024-03-23T05:41:14;10.80;99.90
21559;DHT22;10940;48.890;8.240;2024-03-23T05:43:39;10.80;99.90
21559;DHT22;10940;48.890;8.240;2024-03-23T05:46:05;10.70;99.90
21559;DHT22;10940;48.890;8.240;2024-03-23T05:48:31;10.70;99.90
21559;DHT22;10940;48.890;8.240;2024-03-23T05:50:57;10.70;99.90
21559;DHT22;10940;48.890;8.240;2024-03-23T05:53:23;10.60;99.90
21559;DHT22;10940;48.890;8.240;2024-03-23T05:55:50;10.60;99.90
21559;DHT22;10940;48.890;8.240;2024-03-23T05:58:17;10.60;99.90
21559;DHT22;10940;48.890;8.240;2024-03-23T06:00:43;10.60;99.90
21559;DHT22;10940;48.890;8.240;2024-03-23T06:03:09;10.50;99.90
21559;DHT22;10940;48.890;8.240;2024-03-23T06:05:38;10.50;99.90
21559;DHT22;10940;48.890;8.240;2024-03-23T06:08:05;10.50;99.90
21559;DHT22;10940;48.890;8.240;2024-03-23T06:10:30;10.40;99.90
21559;DHT22;10940;48.890;8.240;2024-03-23T06:12:57;10.40;99.90
21559;DHT22;10940;48.890;8.240;2024-03-23T06:15:24;10.40;99.90
21559;DHT22;10940;48.890;8.240;2024-03-23T06:17:49;10.30;99.90
21559;DHT22;10940;48.890;8.240;2024-03-23T06:20:15;10.30;99.90
21559;DHT22;10940;48.890;8.240;2024-03-23T06:22:42;10.30;99.90
21559;DHT22;10940;48.890;8.240;2024-03-23T06:25:07;10.30;99.90
21559;DHT22;10940;48.890;8.240;2024-03-23T06:27:33;10.30;99.90
21559;DHT22;10940;48.890;8.240;2024-03-23T06:29:59;10.20;99.90
21559;DHT22;10940;48.890;8.240;2024-03-23T06:32:25;10.20;99.90
21559;DHT22;10940;48.890;8.240;2024-03-23T06:34:54;10.20;99.90
21559;DHT22;10940;48.890;8.240;2024-03-23T06:37:19;10.20;99.90
21559;DHT22;10940;48.890;8.240;2024-03-23T06:39:46;10.20;99.90
21559;DHT22;10940;48.890;8.240;2024-03-23T06:42:12;10.10;99.90
21559;DHT22;10940;48.890;8.240;2024-03-23T06:44:38;10.20;99.90
21559;DHT22;10940;48.890;8.240;2024-03-23T06:47:05;10.20;99.90
21559;DHT22;10940;48.890;8.240;2024-03-23T06:49:30;10.10;99.90
21559;DHT22;10940;48.890;8.240;2024-03-23T06:51:56;10.10;99.90
21559;DHT22;10940;48.890;8.240;2024-03-23T06:54:21;10.10;99.90
21559;DHT22;10940;48.890;8.240;2024-03-23T06:56:47;10.00;99.90
21559;DHT22;10940;48.890;8.240;2024-03-23T06:59:12;9.90;99.90
21559;DHT22;10940;48.890;8.240;2024-03-23T07:01:38;9.90;99.90
21559;DHT22;10940;48.890;8.240;2024-03-23T07:04:04;9.90;99.90
21559;DHT22;10940;48.890;8.240;2024-03-23T07:06:33;9.90;99.90
21559;DHT22;10940;48.890;8.240;2024-03-23T07:08:58;9.90;99.90
21559;DHT22;10940;48.890;8.240;2024-03-23T07:11:24;9.90;99.90
21559;DHT22;10940;48.890;8.240;2024-03-23T07:13:50;9.90;99.90
21559;DHT22;10940;48.890;8.240;2024-03-23T07:16:16;9.90;99.90
21559;DHT22;10940;48.890;8.240;2024-03-23T07:18:42;9.90;99.90
21559;DHT22;10940;48.890;8.240;2024-03-23T07:21:08;9.80;99.90
21559;DHT22;10940;48.890;8.240;2024-03-23T07:23:34;9.80;99.90
21559;DHT22;10940;48.890;8.240;2024-03-23T07:26:04;9.80;99.90
21559;DHT22;10940;48.890;8.240;2024-03-23T07:28:33;9.90;99.90
21559;DHT22;10940;48.890;8.240;2024-03-23T07:31:06;9.90;99.90
21559;DHT22;10940;48.890;8.240;2024-03-23T07:33:35;9.90;99.90
21559;DHT22;10940;48.890;8.240;2024-03-23T07:36:00;9.90;99.90
21559;DHT22;10940;48.890;8.240;2024-03-23T07:38:27;9.90;99.90
21559;DHT22;10940;48.890;8.240;2024-03-23T07:41:05;9.90;99.90
21559;DHT22;10940;48.890;8.240;2024-03-23T07:43:31;10.00;99.90
21559;DHT22;10940;48.890;8.240;2024-03-23T07:45:58;10.10;99.90
21559;DHT22;10940;48.890;8.240;2024-03-23T07:48:23;10.10;99.90
21559;DHT22;10940;48.890;8.240;2024-03-23T07:51:06;10.10;99.90
21559;DHT22;10940;48.890;8.240;2024-03-23T07:53:32;10.10;99.90
21559;DHT22;10940;48.890;8.240;2024-03-23T07:56:00;10.10;99.90
21559;DHT22;10940;48.890;8.240;2024-03-23T07:58:26;10.10;99.90
21559;DHT22;10940;48.890;8.240;2024-03-23T08:00:53;10.10;99.90
21559;DHT22;10940;48.890;8.240;2024-03-23T08:03:19;10.20;99.90
21559;DHT22;10940;48.890;8.240;2024-03-23T08:05:44;10.20;99.90
21559;DHT22;10940;48.890;8.240;2024-03-23T08:08:10;10.20;99.90
21559;DHT22;10940;48.890;8.240;2024-03-23T08:10:37;10.10;99.90
21559;DHT22;10940;48.890;8.240;2024-03-23T08:13:02;10.10;99.90
21559;DHT22;10940;48.890;8.240;2024-03-23T08:15:31;10.00;99.90
21559;DHT22;10940;48.890;8.240;2024-03-23T08:17:59;10.00;99.90
21559;DHT22;10940;48.890;8.240;2024-03-23T08:20:25;9.90;99.90
21559;DHT22;10940;48.890;8.240;2024-03-23T08:22:50;9.80;99.90
21559;DHT22;10940;48.890;8.240;2024-03-23T08:25:16;9.80;99.90
21559;DHT22;10940;48.890;8.240;2024-03-23T08:27:44;9.80;99.90
21559;DHT22;10940;48.890;8.240;2024-03-23T08:30:10;9.80;99.90
21559;DHT22;10940;48.890;8.240;2024-03-23T08:32:36;10.00;99.90
21559;DHT22;10940;48.890;8.240;2024-03-23T08:35:02;10.10;99.90
21559;DHT22;10940;48.890;8.240;2024-03-23T08:37:28;10.20;99.90
21559;DHT22;10940;48.890;8.240;2024-03-23T08:39:53;10.30;99.90
21559;DHT22;10940;48.890;8.240;2024-03-23T08:42:19;10.20;99.90
21559;DHT22;10940;48.890;8.240;2024-03-23T08:44:44;10.20;99.90
21559;DHT22;10940;48.890;8.240;2024-03-23T08:47:14;10.30;99.90
21559;DHT22;10940;48.890;8.240;2024-03-23T08:49:39;10.30;99.90
21559;DHT22;10940;48.890;8.240;2024-03-23T08:52:05;10.30;99.90
21559;DHT22;10940;48.890;8.240;2024-03-23T08:54:30;10.30;99.90
21559;DHT22;10940;48.890;8.240;2024-03-23T08:56:56;10.20;99.90
21559;DHT22;10940;48.890;8.240;2024-03-23T08:59:22;10.20;99.90
21559;DHT22;10940;48.890;8.240;2024-03-23T09:01:49;10.10;99.90
21559;DHT22;10940;48.890;8.240;2024-03-23T09:04:15;10.10;99.90
21559;DHT22;10940;48.890;8.240;2024-03-23T09:06:42;10.20;99.90
21559;DHT22;10940;48.890;8.240;2024-03-23T09:09:08;10.30;99.90
21559;DHT22;10940;48.890;8.240;2024-03-23T09:11:33;10.40;99.90
21559;DHT22;10940;48.890;8.240;2024-03-23T09:13:59;10.50;99.90
21559;DHT22;10940;48.890;8.240;2024-03-23T09:16:24;10.70;99.90
21559;DHT22;10940;48.890;8.240;2024-03-23T09:18:51;10.80;99.90
21559;DHT22;10940;48.890;8.240;2024-03-23T09:21:17;11.00;99.90
21559;DHT22;10940;48.890;8.240;2024-03-23T09:23:44;11.20;99.90
21559;DHT22;10940;48.890;8.240;2024-03-23T09:26:10;11.30;99.90
21559;DHT22;10940;48.890;8.240;2024-03-23T09:28:35;11.40;99.90
21559;DHT22;10940;48.890;8.240;2024-03-23T09:31:07;11.30;99.90
21559;DHT22;10940;48.890;8.240;2024-03-23T09:33:34;11.20;99.90
21559;DHT22;10940;48.890;8.240;2024-03-23T09:36:06;11.20;99.90
21559;DHT22;10940;48.890;8.240;2024-03-23T09:38:33;11.10;99.90
21559;DHT22;10940;48.890;8.240;2024-03-23T09:40:59;11.10;99.90
21559;DHT22;10940;48.890;8.240;2024-03-23T09:43:25;11.00;99.90
21559;DHT22;10940;48.890;8.240;2024-03-23T09:45:50;10.70;99.90
21559;DHT22;10940;48.890;8.240;2024-03-23T09:48:17;10.30;99.90
21559;DHT22;10940;48.890;8.240;2024-03-23T09:50:43;9.60;99.90
21559;DHT22;10940;48.890;8.240;2024-03-23T09:53:10;8.90;99.90
21559;DHT22;10940;48.890;8.240;2024-03-23T09:55:40;8.40;99.90
21559;DHT22;10940;48.890;8.240;2024-03-23T09:58:07;7.90;99.90
21559;DHT22;10940;48.890;8.240;2024-03-23T10:00:34;7.70;99.90
21559;DHT22;10940;48.890;8.240;2024-03-23T10:03:00;7.60;99.90
21559;DHT22;10940;48.890;8.240;2024-03-23T10:05:29;7.60;99.90
21559;DHT22;10940;48.890;8.240;2024-03-23T10:07:56;7.70;99.90
21559;DHT22;10940;48.890;8.240;2024-03-23T10:10:25;7.80;99.90
21559;DHT22;10940;48.890;8.240;2024-03-23T10:12:51;7.90;99.90
21559;DHT22;10940;48.890;8.240;2024-03-23T10:15:23;8.10;99.90
21559;DHT22;10940;48.890;8.240;2024-03-23T10:17:49;8.30;99.90
21559;DHT22;10940;48.890;8.240;2024-03-23T10:20:19;8.50;99.90
21559;DHT22;10940;48.890;8.240;2024-03-23T10:22:48;8.60;99.90
21559;DHT22;10940;48.890;8.240;2024-03-23T10:25:14;8.70;99.90
21559;DHT22;10940;48.890;8.240;2024-03-23T10:27:39;8.80;99.90
21559;DHT22;10940;48.890;8.240;2024-03-23T10:30:12;8.80;99.90
21559;DHT22;10940;48.890;8.240;2024-03-23T10:32:40;8.80;99.90
21559;DHT22;10940;48.890;8.240;2024-03-23T10:37:42;8.70;99.90
21559;DHT22;10940;48.890;8.240;2024-03-23T10:40:10;8.70;99.90
21559;DHT22;10940;48.890;8.240;2024-03-23T10:42:38;8.70;99.90
21559;DHT22;10940;48.890;8.240;2024-03-23T10:45:07;8.70;99.90
21559;DHT22;10940;48.890;8.240;2024-03-23T10:47:35;8.70;99.90
21559;DHT22;10940;48.890;8.240;2024-03-23T10:50:01;8.80;99.90
21559;DHT22;10940;48.890;8.240;2024-03-23T10:52:27;8.80;99.90
21559;DHT22;10940;48.890;8.240;2024-03-23T10:54:55;8.90;99.90
21559;DHT22;10940;48.890;8.240;2024-03-23T10:57:29;8.90;99.90
21559;DHT22;10940;48.890;8.240;2024-03-23T10:59:56;8.90;99.90
21559;DHT22;10940;48.890;8.240;2024-03-23T11:02:23;9.00;99.90
21559;DHT22;10940;48.890;8.240;2024-03-23T11:04:48;9.10;99.90
21559;DHT22;10940;48.890;8.240;2024-03-23T11:09:53;9.30;99.90
21559;DHT22;10940;48.890;8.240;2024-03-23T11:17:25;9.70;99.90
21559;DHT22;10940;48.890;8.240;2024-03-23T11:20:04;9.70;99.90
21559;DHT22;10940;48.890;8.240;2024-03-23T11:25:28;9.90;99.90
21559;DHT22;10940;48.890;8.240;2024-03-23T11:27:58;10.00;99.90
21559;DHT22;10940;48.890;8.240;2024-03-23T11:30:34;10.10;99.90
21559;DHT22;10940;48.890;8.240;2024-03-23T11:33:02;10.20;99.90
21559;DHT22;10940;48.890;8.240;2024-03-23T11:35:33;10.30;99.90
21559;DHT22;10940;48.890;8.240;2024-03-23T11:38:13;10.50;99.90
21559;DHT22;10940;48.890;8.240;2024-03-23T11:40:41;10.60;99.90
21559;DHT22;10940;48.890;8.240;2024-03-23T11:43:08;10.80;99.90
21559;DHT22;10940;48.890;8.240;2024-03-23T11:45:45;10.90;99.90
21559;DHT22;10940;48.890;8.240;2024-03-23T11:48:15;11.10;99.90
21559;DHT22;10940;48.890;8.240;2024-03-23T11:50:44;11.20;99.90
21559;DHT22;10940;48.890;8.240;2024-03-23T11:53:18;11.20;99.90
21559;DHT22;10940;48.890;8.240;2024-03-23T11:58:11;11.30;99.90
21559;DHT22;10940;48.890;8.240;2024-03-23T12:00:37;11.40;99.90
21559;DHT22;10940;48.890;8.240;2024-03-23T12:03:03;11.50;99.90
21559;DHT22;10940;48.890;8.240;2024-03-23T12:05:29;11.60;99.90
21559;DHT22;10940;48.890;8.240;2024-03-23T12:07:57;11.60;99.90
21559;DHT22;10940;48.890;8.240;2024-03-23T12:10:40;11.40;99.90
21559;DHT22;10940;48.890;8.240;2024-03-23T12:13:05;11.30;99.90
21559;DHT22;10940;48.890;8.240;2024-03-23T12:15:31;11.30;99.90
21559;DHT22;10940;48.890;8.240;2024-03-23T12:18:09;11.30;99.90
21559;DHT22;10940;48.890;8.240;2024-03-23T12:20:37;11.50;99.90
21559;DHT22;10940;48.890;8.240;2024-03-23T12:23:10;11.70;99.90
21559;DHT22;10940;48.890;8.240;2024-03-23T12:25:37;11.90;99.90
21559;DHT22;10940;48.890;8.240;2024-03-23T12:28:04;12.10;99.90
21559;DHT22;10940;48.890;8.240;2024-03-23T12:30:32;12.20;99.90
21559;DHT22;10940;48.890;8.240;2024-03-23T12:32:58;12.10;99.90
21559;DHT22;10940;48.890;8.240;2024-03-23T12:35:23;12.10;99.90
21559;DHT22;10940;48.890;8.240;2024-03-23T12:37:49;11.90;99.90
21559;DHT22;10940;48.890;8.240;2024-03-23T12:40:14;11.80;99.90
21559;DHT22;10940;48.890;8.240;2024-03-23T12:42:40;11.60;99.90
21559;DHT22;10940;48.890;8.240;2024-03-23T12:45:06;11.50;99.90
21559;DHT22;10940;48.890;8.240;2024-03-23T12:47:32;11.30;99.90
21559;DHT22;10940;48.890;8.240;2024-03-23T12:49:57;10.80;99.90
21559;DHT22;10940;48.890;8.240;2024-03-23T12:52:23;10.40;99.90
21559;DHT22;10940;48.890;8.240;2024-03-23T12:54:54;10.20;99.90
21559;DHT22;10940;48.890;8.240;2024-03-23T12:57:21;10.00;99.90
21559;DHT22;10940;48.890;8.240;2024-03-23T12:59:47;9.70;99.90
21559;DHT22;10940;48.890;8.240;2024-03-23T13:02:17;9.60;99.90
21559;DHT22;10940;48.890;8.240;2024-03-23T13:04:42;9.50;99.90
21559;DHT22;10940;48.890;8.240;2024-03-23T13:07:09;9.50;99.90
21559;DHT22;10940;48.890;8.240;2024-03-23T13:09:34;9.60;99.90
21559;DHT22;10940;48.890;8.240;2024-03-23T13:12:00;9.70;99.90
21559;DHT22;10940;48.890;8.240;2024-03-23T13:14:25;9.80;99.90
21559;DHT22;10940;48.890;8.240;2024-03-23T13:16:50;10.00;99.90
21559;DHT22;10940;48.890;8.240;2024-03-23T13:19:16;10.00;99.90
21559;DHT22;10940;48.890;8.240;2024-03-23T13:21:42;9.90;99.90
21559;DHT22;10940;48.890;8.240;2024-03-23T13:24:08;9.80;99.90
21559;DHT22;10940;48.890;8.240;2024-03-23T13:26:33;9.70;99.90
21559;DHT22;10940;48.890;8.240;2024-03-23T13:28:59;9.40;99.90
21559;DHT22;10940;48.890;8.240;2024-03-23T13:31:25;9.10;99.90
21559;DHT22;10940;48.890;8.240;2024-03-23T13:33:50;8.80;99.90
21559;DHT22;10940;48.890;8.240;2024-03-23T13:36:16;8.80;99.90
21559;DHT22;10940;48.890;8.240;2024-03-23T13:38:42;8.90;99.90
21559;DHT22;10940;48.890;8.240;2024-03-23T13:41:07;9.00;99.90
21559;DHT22;10940;48.890;8.240;2024-03-23T13:43:34;9.10;99.90
21559;DHT22;10940;48.890;8.240;2024-03-23T13:45:59;9.40;99.90
21559;DHT22;10940;48.890;8.240;2024-03-23T13:48:26;9.70;99.90
21559;DHT22;10940;48.890;8.240;2024-03-23T13:51:04;9.80;99.90
21559;DHT22;10940;48.890;8.240;2024-03-23T13:53:31;9.90;99.90
21559;DHT22;10940;48.890;8.240;2024-03-23T13:55:58;10.00;99.90
21559;DHT22;10940;48.890;8.240;2024-03-23T13:58:23;10.20;99.90
21559;DHT22;10940;48.890;8.240;2024-03-23T14:00:51;10.40;99.90
21559;DHT22;10940;48.890;8.240;2024-03-23T14:03:16;10.60;99.90
21559;DHT22;10940;48.890;8.240;2024-03-23T14:05:44;10.80;99.90
21559;DHT22;10940;48.890;8.240;2024-03-23T14:08:11;10.70;99.90
21559;DHT22;10940;48.890;8.240;2024-03-23T14:10:40;10.50;99.90
21559;DHT22;10940;48.890;8.240;2024-03-23T14:13:05;10.30;99.90
21559;DHT22;10940;48.890;8.240;2024-03-23T14:15:31;9.90;99.90
21559;DHT22;10940;48.890;8.240;2024-03-23T14:17:58;9.50;99.90
21559;DHT22;10940;48.890;8.240;2024-03-23T14:20:24;9.00;99.90
21559;DHT22;10940;48.890;8.240;2024-03-23T14:22:50;8.80;99.90
21559;DHT22;10940;48.890;8.240;2024-03-23T14:25:16;8.80;99.90
21559;DHT22;10940;48.890;8.240;2024-03-23T14:27:45;9.00;99.90
21559;DHT22;10940;48.890;8.240;2024-03-23T14:30:11;9.30;99.90
21559;DHT22;10940;48.890;8.240;2024-03-23T14:32:40;9.40;99.90
21559;DHT22;10940;48.890;8.240;2024-03-23T14:35:06;9.60;99.90
21559;DHT22;10940;48.890;8.240;2024-03-23T14:37:39;9.80;99.90
21559;DHT22;10940;48.890;8.240;2024-03-23T14:40:05;10.00;99.90
21559;DHT22;10940;48.890;8.240;2024-03-23T14:42:31;10.10;99.90
21559;DHT22;10940;48.890;8.240;2024-03-23T14:44:58;10.20;99.90
21559;DHT22;10940;48.890;8.240;2024-03-23T14:47:24;10.10;99.90
21559;DHT22;10940;48.890;8.240;2024-03-23T14:49:49;10.00;99.90
21559;DHT22;10940;48.890;8.240;2024-03-23T14:52:18;9.90;99.90
21559;DHT22;10940;48.890;8.240;2024-03-23T14:54:44;9.70;99.90
21559;DHT22;10940;48.890;8.240;2024-03-23T14:57:10;9.70;99.90
21559;DHT22;10940;48.890;8.240;2024-03-23T14:59:36;9.60;99.90
21559;DHT22;10940;48.890;8.240;2024-03-23T15:02:06;9.60;99.90
21559;DHT22;10940;48.890;8.240;2024-03-23T15:04:32;9.70;99.90
21559;DHT22;10940;48.890;8.240;2024-03-23T15:06:58;9.70;99.90
21559;DHT22;10940;48.890;8.240;2024-03-23T15:09:23;9.70;99.90
21559;DHT22;10940;48.890;8.240;2024-03-23T15:11:49;9.70;99.90
21559;DHT22;10940;48.890;8.240;2024-03-23T15:14:15;9.80;99.90
21559;DHT22;10940;48.890;8.240;2024-03-23T15:16:40;9.90;99.90
21559;DHT22;10940;48.890;8.240;2024-03-23T15:19:08;10.00;99.90
21559;DHT22;10940;48.890;8.240;2024-03-23T15:21:33;10.00;99.90
21559;DHT22;10940;48.890;8.240;2024-03-23T15:23:59;10.10;99.90
21559;DHT22;10940;48.890;8.240;2024-03-23T15:26:25;10.10;99.90
21559;DHT22;10940;48.890;8.240;2024-03-23T15:28:50;10.10;99.90
21559;DHT22;10940;48.890;8.240;2024-03-23T15:31:22;10.00;99.90
21559;DHT22;10940;48.890;8.240;2024-03-23T15:33:49;10.00;99.90
21559;DHT22;10940;48.890;8.240;2024-03-23T15:36:14;9.90;99.90
21559;DHT22;10940;48.890;8.240;2024-03-23T15:38:40;9.90;99.90
21559;DHT22;10940;48.890;8.240;2024-03-23T15:41:06;9.60;99.90
21559;DHT22;10940;48.890;8.240;2024-03-23T15:43:31;9.50;99.90
21559;DHT22;10940;48.890;8.240;2024-03-23T15:46:02;9.40;99.90
21559;DHT22;10940;48.890;8.240;2024-03-23T15:48:31;9.40;99.90
21559;DHT22;10940;48.890;8.240;2024-03-23T15:51:01;9.40;99.90
21559;DHT22;10940;48.890;8.240;2024-03-23T15:53:28;9.40;99.90
21559;DHT22;10940;48.890;8.240;2024-03-23T15:55:58;9.40;99.90
21559;DHT22;10940;48.890;8.240;2024-03-23T15:58:25;9.20;99.90
21559;DHT22;10940;48.890;8.240;2024-03-23T16:03:23;9.10;99.90
21559;DHT22;10940;48.890;8.240;2024-03-23T16:06:00;9.10;99.90
21559;DHT22;10940;48.890;8.240;2024-03-23T16:08:27;9.00;99.90
21559;DHT22;10940;48.890;8.240;2024-03-23T16:10:53;9.00;99.90
21559;DHT22;10940;48.890;8.240;2024-03-23T16:13:19;8.80;99.90
21559;DHT22;10940;48.890;8.240;2024-03-23T16:15:45;8.70;99.90
21559;DHT22;10940;48.890;8.240;2024-03-23T16:18:11;8.60;99.90
21559;DHT22;10940;48.890;8.240;2024-03-23T16:20:37;8.60;99.90
21559;DHT22;10940;48.890;8.240;2024-03-23T16:23:03;8.50;99.90
21559;DHT22;10940;48.890;8.240;2024-03-23T16:25:29;8.40;99.90
21559;DHT22;10940;48.890;8.240;2024-03-23T16:27:55;8.40;99.90
21559;DHT22;10940;48.890;8.240;2024-03-23T16:30:21;8.20;99.90
21559;DHT22;10940;48.890;8.240;2024-03-23T16:32:47;8.10;99.90
21559;DHT22;10940;48.890;8.240;2024-03-23T16:35:14;8.00;99.90
21559;DHT22;10940;48.890;8.240;2024-03-23T16:37:40;8.00;99.90
21559;DHT22;10940;48.890;8.240;2024-03-23T16:40:07;7.90;99.90
21559;DHT22;10940;48.890;8.240;2024-03-23T16:42:37;7.90;99.90